Aviation Digital Data Service (ADDS)

Output produced by METARs form (0858 UTC 24 March 2019)
found at http://www.aviationweather.gov/metar/data/
 
Forecast for: RJAH (HYAKURI (JASDF) , JP)
Text: TAF RJAH 240506Z 2406/2512 30010KT 9999 FEW030
Forecast period: 0600 to 0700 UTC 24 March 2019
Forecast type: FROM: standard forecast or significant change
Winds: from the WNW (300 degrees) at 12 MPH (10 knots; 5.1 m/s)
Visibility: 6 or more miles 10+ km)
Ceiling: at least 12,000 feet AGL
Clouds: few clouds at 3000 feet AGL
Weather: no significant weather forecast for this period
Text: BECMG 2407/2409 02006KT
Forecast period: 0700 UTC 24 March 2019 to 0000 UTC 25 March 2019
Forecast type: BECOMING: Conditions expected to become as follows by 0900 UTC 24 March 2019
Winds: from the NNE (20 degrees) at 7 MPH (6 knots; 3.1 m/s)
Visibility: 6 or more miles 10+ km)
Ceiling: at least 12,000 feet AGL
Clouds: few clouds at 3000 feet AGL
Weather: no significant weather forecast for this period
Text: BECMG 2500/2503 20010KT
Forecast period: 0000 to 1200 UTC 25 March 2019
Forecast type: BECOMING: Conditions expected to become as follows by 0300 UTC 25 March 2019
Winds: from the SSW (200 degrees) at 12 MPH (10 knots; 5.1 m/s)
Visibility: 6 or more miles 10+ km)
Ceiling: at least 12,000 feet AGL
Clouds: few clouds at 3000 feet AGL
Weather: no significant weather forecast for this period